Time;durP1;ratioP1;P1;durP2;ratioP2;P2;SDS_P1;SDS_P2;PMS_P1;PMS_P2;Temp;Humidity;BMP_temperature;BMP_pressure;BME280_temperature;BME280_humidity;BME280_pressure;Samples;Min_cycle;Max_cycle;Signal;HPM_P1;HPM_P2
2023/04/09 00:01:33;;;;;;;54.38;26.48;;;;;;;9.35;100.00;102214.22;5083810;28;20048;-75
2023/04/09 00:03:59;;;;;;;49.97;25.10;;;;;;;9.34;100.00;102218.16;5072459;28;20068;-76
2023/04/09 00:06:26;;;;;;;50.35;25.20;;;;;;;9.31;100.00;102218.03;5077426;28;20093;-76
2023/04/09 00:08:53;;;;;;;52.80;25.95;;;;;;;9.23;100.00;102206.00;5081282;28;20062;-75
2023/04/09 00:11:20;;;;;;;46.13;24.10;;;;;;;9.16;100.00;102208.56;5098722;28;20066;-75
2023/04/09 00:13:46;;;;;;;48.58;25.63;;;;;;;9.14;100.00;102215.56;5084165;28;20751;-74
2023/04/09 00:16:13;;;;;;;49.22;24.85;;;;;;;9.11;100.00;102208.81;5080803;28;20056;-75
2023/04/09 00:18:40;;;;;;;55.75;24.92;;;;;;;9.11;100.00;102208.81;5075617;28;20461;-76
2023/04/09 00:21:07;;;;;;;53.72;24.20;;;;;;;9.07;100.00;102204.34;5081724;28;20957;-75
2023/04/09 00:23:34;;;;;;;54.72;25.45;;;;;;;9.07;100.00;102209.84;5076156;28;20056;-75
2023/04/09 00:26:01;;;;;;;47.35;23.58;;;;;;;9.03;100.00;102201.50;5079861;28;20541;-75
2023/04/09 00:28:27;;;;;;;49.20;24.30;;;;;;;9.03;100.00;102207.00;5082495;28;20048;-75
2023/04/09 00:30:54;;;;;;;50.63;23.45;;;;;;;8.96;100.00;102211.50;5083276;28;20044;-75
2023/04/09 00:33:20;;;;;;;50.22;24.60;;;;;;;8.71;100.00;102207.22;5077731;28;20036;-75
2023/04/09 00:35:47;;;;;;;53.55;24.85;;;;;;;8.71;100.00;102205.25;5085762;28;20494;-75
2023/04/09 00:38:13;;;;;;;48.75;23.55;;;;;;;8.68;100.00;102200.47;5082346;28;20047;-75
2023/04/09 00:40:40;;;;;;;57.05;27.92;;;;;;;8.62;100.00;102199.09;5091513;28;20045;-75
2023/04/09 00:43:06;;;;;;;49.58;23.02;;;;;;;8.59;100.00;102194.25;5083505;28;20055;-74
2023/04/09 00:45:33;;;;;;;46.53;22.40;;;;;;;8.60;100.00;102192.31;5087090;28;20135;-75
2023/04/09 00:47:59;;;;;;;50.60;24.95;;;;;;;8.55;100.00;102198.88;5083655;28;20112;-75
2023/04/09 00:50:26;;;;;;;51.50;23.60;;;;;;;8.52;100.00;102193.22;5079460;28;20036;-76
2023/04/09 00:52:53;;;;;;;52.05;23.10;;;;;;;8.46;100.00;102192.69;5084175;28;20048;-76
2023/04/09 00:55:20;;;;;;;48.17;22.33;;;;;;;8.46;100.00;102192.69;5083518;28;20113;-76
2023/04/09 00:57:46;;;;;;;48.42;23.17;;;;;;;8.46;100.00;102202.91;5087443;28;20537;-76
2023/04/09 01:00:13;;;;;;;48.08;21.77;;;;;;;8.44;100.00;102203.25;5087233;28;20048;-76
2023/04/09 01:02:40;;;;;;;51.13;21.70;;;;;;;8.39;100.00;102192.47;5086782;28;20070;-76
2023/04/09 01:05:08;;;;;;;48.83;22.67;;;;;;;8.39;100.00;102200.72;5086187;28;20044;-75
2023/04/09 01:08:12;;;;;;;48.55;22.42;;;;;;;8.34;100.00;102192.72;5083851;28;20494;-75
2023/04/09 01:10:51;;;;;;;47.40;21.27;;;;;;;8.32;100.00;102196.94;5046898;28;20048;-76
2023/04/09 01:13:38;;;;;;;44.42;21.80;;;;;;;8.26;100.00;102201.88;5047648;28;20041;-74
2023/04/09 01:16:06;;;;;;;49.15;21.70;;;;;;;8.22;100.00;102202.91;5075299;28;20040;-75
2023/04/09 01:18:35;;;;;;;45.63;21.77;;;;;;;8.18;100.00;102199.22;5091589;28;20082;-74
2023/04/09 01:21:10;;;;;;;43.40;21.35;;;;;;;8.14;100.00;102193.59;5091115;28;20048;-75
2023/04/09 01:23:55;;;;;;;45.70;21.90;;;;;;;8.09;100.00;102198.56;5090775;28;20397;-75
2023/04/09 01:26:34;;;;;;;48.70;22.40;;;;;;;7.99;100.00;102188.78;5090651;28;20044;-75
2023/04/09 01:29:02;;;;;;;45.22;20.77;;;;;;;8.01;100.00;102192.00;5090854;28;20042;-75
2023/04/09 01:31:37;;;;;;;46.45;19.98;;;;;;;7.94;100.00;102192.56;5090253;28;20063;-73
2023/04/09 01:34:07;;;;;;;43.75;21.08;;;;;;;7.94;100.00;102194.53;5089893;28;20091;-75
2023/04/09 01:36:35;;;;;;;48.75;21.33;;;;;;;7.90;100.00;102190.84;5087061;28;20052;-75
2023/04/09 01:39:02;;;;;;;47.28;20.80;;;;;;;7.86;100.00;102198.16;5089410;28;20509;-75
2023/04/09 01:41:31;;;;;;;46.53;21.83;;;;;;;7.83;100.00;102198.84;5089535;28;20048;-74
2023/04/09 01:44:00;;;;;;;50.45;22.05;;;;;;;7.80;100.00;102208.63;5089420;28;20055;-74
2023/04/09 01:46:28;;;;;;;42.92;20.77;;;;;;;7.78;100.00;102199.91;5090014;28;20047;-75
2023/04/09 01:48:56;;;;;;;44.72;20.58;;;;;;;7.77;100.00;102200.25;5090293;28;20127;-77
2023/04/09 01:51:23;;;;;;;49.35;21.98;;;;;;;7.87;100.00;102197.03;5083146;28;20460;-73
2023/04/09 01:53:49;;;;;;;48.42;22.20;;;;;;;7.87;100.00;102200.59;5090291;28;20047;-75
2023/04/09 01:56:16;;;;;;;49.90;20.90;;;;;;;7.81;100.00;102203.94;5088213;28;20138;-74
2023/04/09 01:58:42;;;;;;;48.60;21.38;;;;;;;7.77;100.00;102192.75;5090874;28;20044;-75
2023/04/09 02:01:13;;;;;;;54.33;25.02;;;;;;;7.57;100.00;102203.88;5088829;28;20048;-77
2023/04/09 02:03:55;;;;;;;50.13;22.77;;;;;;;7.55;100.00;102200.66;5089954;28;20101;-75
2023/04/09 02:06:28;;;;;;;47.50;22.33;;;;;;;7.67;100.00;102198.72;5086753;28;20036;-75
2023/04/09 02:08:59;;;;;;;47.65;22.05;;;;;;;7.64;100.00;102204.94;5090670;28;20040;-74
2023/04/09 02:11:28;;;;;;;42.95;20.58;;;;;;;7.50;100.00;102207.19;5081638;28;20124;-75
2023/04/09 02:13:55;;;;;;;41.50;19.02;;;;;;;7.44;100.00;102202.25;5100266;28;20048;-74
2023/04/09 02:16:22;;;;;;;45.45;21.58;;;;;;;7.35;100.00;102193.25;5085577;28;20052;-74
2023/04/09 02:18:53;;;;;;;45.42;22.50;;;;;;;7.44;100.00;102199.50;5089599;28;20490;-74
2023/04/09 02:21:21;;;;;;;45.70;20.17;;;;;;;7.30;100.00;102193.50;5089652;28;20047;-74
2023/04/09 02:23:48;;;;;;;45.05;20.88;;;;;;;7.23;100.00;102187.72;5089999;28;20052;-74
2023/04/09 02:26:14;;;;;;;48.33;21.83;;;;;;;7.21;100.00;102185.31;5088923;28;20658;-75
2023/04/09 02:28:41;;;;;;;46.03;21.00;;;;;;;7.17;100.00;102191.84;5089711;28;20040;-74
2023/04/09 02:31:07;;;;;;;46.15;20.83;;;;;;;7.10;100.00;102189.66;5089350;28;20554;-74
2023/04/09 02:33:34;;;;;;;45.67;20.55;;;;;;;7.09;100.00;102187.22;5089122;28;20401;-75
2023/04/09 02:36:01;;;;;;;43.50;20.45;;;;;;;7.04;100.00;102179.16;5086618;28;20119;-74
2023/04/09 02:38:27;;;;;;;45.50;21.52;;;;;;;7.00;100.00;102184.56;5086956;28;20071;-74
2023/04/09 02:40:54;;;;;;;49.45;22.17;;;;;;;6.96;100.00;102183.59;5088536;28;20789;-74
2023/04/09 02:43:20;;;;;;;48.78;21.98;;;;;;;6.92;100.00;102181.88;5087643;28;20514;-74
2023/04/09 02:45:47;;;;;;;43.53;21.15;;;;;;;6.86;100.00;102177.72;5089180;28;20044;-74
2023/04/09 02:48:13;;;;;;;45.92;20.67;;;;;;;6.86;100.00;102174.97;5085877;28;20056;-75
2023/04/09 02:50:40;;;;;;;49.05;21.95;;;;;;;6.94;100.00;102165.81;5089718;28;20040;-75
2023/04/09 02:53:06;;;;;;;49.10;21.98;;;;;;;6.85;100.00;102167.88;5088942;28;20047;-74
2023/04/09 02:55:33;;;;;;;49.70;22.48;;;;;;;6.78;100.00;102173.09;5089905;28;20041;-76
2023/04/09 02:57:59;;;;;;;46.92;21.33;;;;;;;6.86;100.00;102166.72;5087449;28;20147;-75
2023/04/09 03:00:26;;;;;;;47.47;21.63;;;;;;;6.76;100.00;102173.44;5086951;28;20048;-74
2023/04/09 03:02:52;;;;;;;50.22;21.98;;;;;;;6.69;100.00;102164.13;5089015;28;20059;-74
2023/04/09 03:05:19;;;;;;;51.55;22.80;;;;;;;6.64;100.00;102170.63;5089104;28;20048;-75
2023/04/09 03:07:46;;;;;;;49.40;21.20;;;;;;;6.61;100.00;102163.03;5089549;28;20110;-75
2023/04/09 03:10:12;;;;;;;50.78;22.67;;;;;;;6.61;100.00;102165.00;5088317;28;20044;-75
2023/04/09 03:12:39;;;;;;;51.13;22.75;;;;;;;6.56;100.00;102157.75;5087936;28;20052;-75
2023/04/09 03:15:06;;;;;;;47.33;22.02;;;;;;;6.59;100.00;102159.84;5087549;28;20036;-74
2023/04/09 03:17:32;;;;;;;51.25;22.65;;;;;;;6.53;100.00;102152.91;5088795;28;20418;-75
2023/04/09 03:19:59;;;;;;;53.15;24.73;;;;;;;6.55;100.00;102156.13;5087198;28;20071;-75
2023/04/09 03:22:25;;;;;;;50.95;21.85;;;;;;;6.55;100.00;102160.84;5079937;28;20036;-74
2023/04/09 03:24:52;;;;;;;50.70;22.98;;;;;;;6.42;100.00;102145.41;5088758;28;20116;-75
2023/04/09 03:27:19;;;;;;;51.08;23.80;;;;;;;6.49;100.00;102151.16;5088796;28;20052;-75
2023/04/09 03:29:45;;;;;;;52.35;23.35;;;;;;;6.48;100.00;102153.09;5085218;28;20051;-74
2023/04/09 03:32:11;;;;;;;51.10;21.67;;;;;;;6.47;100.00;102148.75;5086022;28;20051;-77
2023/04/09 03:34:38;;;;;;;49.38;21.83;;;;;;;6.41;100.00;102143.78;5088922;28;20044;-76
2023/04/09 03:37:04;;;;;;;49.20;23.10;;;;;;;6.40;100.00;102150.41;5088543;28;20143;-75
2023/04/09 03:39:31;;;;;;;49.85;23.25;;;;;;;6.36;100.00;102143.97;5086078;28;20568;-76
2023/04/09 03:41:58;;;;;;;47.92;23.08;;;;;;;6.30;100.00;102148.06;5087498;28;20055;-76
2023/04/09 03:44:24;;;;;;;52.10;23.70;;;;;;;6.31;100.00;102141.44;5088025;28;20064;-74
2023/04/09 03:46:51;;;;;;;51.60;22.08;;;;;;;6.23;100.00;102148.59;5088248;28;20075;-76
2023/04/09 03:49:17;;;;;;;50.30;23.27;;;;;;;6.20;100.00;102146.53;5084036;28;20060;-74
2023/04/09 03:51:44;;;;;;;55.35;23.52;;;;;;;6.18;100.00;102140.53;5086352;28;20052;-76
2023/04/09 03:54:10;;;;;;;50.08;22.75;;;;;;;6.07;100.00;102144.03;5087562;28;20048;-77
2023/04/09 03:56:37;;;;;;;55.88;23.17;;;;;;;6.06;100.00;102139.66;5088096;28;20044;-77
2023/04/09 03:59:03;;;;;;;54.58;23.95;;;;;;;6.01;100.00;102137.91;5087774;28;20411;-75
2023/04/09 04:01:30;;;;;;;53.28;24.17;;;;;;;5.95;100.00;102135.69;5084951;28;20043;-75
2023/04/09 04:03:56;;;;;;;50.88;23.77;;;;;;;5.93;100.00;102140.69;5088134;28;20445;-76
2023/04/09 04:06:23;;;;;;;54.38;25.60;;;;;;;5.91;100.00;102149.28;5087645;28;20048;-76
2023/04/09 04:08:49;;;;;;;51.72;24.20;;;;;;;5.85;100.00;102136.06;5087960;28;20059;-77
2023/04/09 04:11:16;;;;;;;52.08;24.92;;;;;;;5.81;100.00;102138.69;5084850;28;20059;-75
2023/04/09 04:13:43;;;;;;;56.35;25.73;;;;;;;5.79;100.00;102143.66;5086672;28;20134;-76
2023/04/09 04:16:09;;;;;;;60.22;26.10;;;;;;;5.75;100.00;102142.72;5086435;28;20040;-76
2023/04/09 04:18:36;;;;;;;53.28;25.52;;;;;;;5.71;100.00;102149.19;5086457;28;20509;-76
2023/04/09 04:21:03;;;;;;;52.53;24.45;;;;;;;5.65;100.00;102134.03;5084659;28;20075;-75
2023/04/09 04:23:29;;;;;;;56.85;27.13;;;;;;;5.65;100.00;102143.09;5086629;28;20044;-75
2023/04/09 04:25:56;;;;;;;55.88;26.75;;;;;;;5.65;100.00;102142.25;5085239;28;20047;-77
2023/04/09 04:28:23;;;;;;;61.70;28.50;;;;;;;5.68;100.00;102149.84;5087107;28;20903;-75
2023/04/09 04:30:49;;;;;;;59.97;27.17;;;;;;;5.66;100.00;102141.94;5087825;28;20055;-76
2023/04/09 04:33:16;;;;;;;55.45;26.33;;;;;;;5.64;100.00;102137.91;5083622;28;20059;-75
2023/04/09 04:35:42;;;;;;;58.85;25.95;;;;;;;5.61;100.00;102139.38;5087917;28;20048;-75
2023/04/09 04:38:09;;;;;;;56.67;27.42;;;;;;;5.57;100.00;102143.13;5085996;28;20051;-76
2023/04/09 04:40:35;;;;;;;60.15;27.73;;;;;;;5.54;100.00;102149.25;5086929;28;20048;-76
2023/04/09 04:43:02;;;;;;;62.92;28.58;;;;;;;5.55;100.00;102153.59;5085750;28;20044;-74
2023/04/09 04:45:28;;;;;;;53.83;27.55;;;;;;;5.53;100.00;102147.66;5087263;28;20079;-75
2023/04/09 04:47:55;;;;;;;58.17;28.63;;;;;;;5.51;100.00;102153.47;5085407;28;20099;-76
2023/04/09 04:50:22;;;;;;;59.50;27.70;;;;;;;5.49;100.00;102153.00;5087699;28;20513;-76
2023/04/09 04:52:48;;;;;;;56.00;28.00;;;;;;;5.60;100.00;102150.69;5080088;28;21823;-75
2023/04/09 04:55:15;;;;;;;52.83;27.55;;;;;;;5.57;100.00;102149.41;5087416;28;20040;-75
2023/04/09 04:57:41;;;;;;;53.17;26.77;;;;;;;5.45;100.00;102154.78;5086438;28;20048;-76
2023/04/09 05:00:08;;;;;;;57.50;27.75;;;;;;;5.47;100.00;102158.81;5085313;28;20050;-76
2023/04/09 05:02:35;;;;;;;59.83;28.05;;;;;;;5.41;100.00;102151.88;5086745;28;20062;-76
2023/04/09 05:05:02;;;;;;;57.58;28.30;;;;;;;5.43;100.00;102156.25;5085625;28;20040;-75
2023/04/09 05:07:29;;;;;;;57.60;26.63;;;;;;;5.41;100.00;102151.88;5086874;28;20044;-76
2023/04/09 05:09:55;;;;;;;57.75;27.33;;;;;;;5.40;100.00;102153.03;5086684;28;20110;-73
2023/04/09 05:12:22;;;;;;;61.47;28.52;;;;;;;5.47;100.00;102148.97;5084263;28;20051;-76
2023/04/09 05:14:48;;;;;;;55.20;26.00;;;;;;;5.47;100.00;102150.56;5082929;28;20506;-76
2023/04/09 05:17:15;;;;;;;53.88;26.98;;;;;;;5.47;100.00;102143.47;5086778;28;20066;-74
2023/04/09 05:19:41;;;;;;;59.72;28.73;;;;;;;5.48;100.00;102156.88;5087111;28;20074;-75
2023/04/09 05:22:08;;;;;;;53.65;26.33;;;;;;;5.46;100.00;102152.84;5086105;28;20052;-76
2023/04/09 05:24:34;;;;;;;57.00;27.25;;;;;;;5.50;100.00;102159.28;5086145;28;20693;-75
2023/04/09 05:27:01;;;;;;;62.67;29.60;;;;;;;5.43;100.00;102140.56;5085910;28;20425;-75
2023/04/09 05:29:27;;;;;;;63.03;31.25;;;;;;;5.51;100.00;102153.47;5087081;28;20048;-75
2023/04/09 05:31:54;;;;;;;54.97;27.80;;;;;;;5.56;100.00;102155.25;5086007;28;20048;-75
2023/04/09 05:34:20;;;;;;;60.88;29.80;;;;;;;5.56;100.00;102164.25;5083106;28;20052;-76
2023/04/09 05:36:47;;;;;;;68.68;31.92;;;;;;;5.62;100.00;102160.22;5085929;28;20044;-75
2023/04/09 05:39:13;;;;;;;71.78;34.65;;;;;;;5.62;100.00;102154.72;5084543;28;20533;-76
2023/04/09 05:41:40;;;;;;;70.45;33.72;;;;;;;5.66;100.00;102154.84;5085825;28;20475;-76
2023/04/09 05:44:07;;;;;;;73.85;36.17;;;;;;;5.61;100.00;102153.13;5086258;28;20127;-76
2023/04/09 05:46:33;;;;;;;76.68;40.65;;;;;;;5.70;100.00;102164.06;5081094;28;20494;-75
2023/04/09 05:49:00;;;;;;;77.57;38.75;;;;;;;5.74;100.00;102157.56;5086780;28;20123;-75
2023/04/09 05:51:26;;;;;;;71.93;36.55;;;;;;;5.82;100.00;102165.00;5086879;28;20149;-75
2023/04/09 05:53:53;;;;;;;69.63;33.40;;;;;;;5.87;100.00;102166.75;5085940;28;20070;-74
2023/04/09 05:56:22;;;;;;;66.65;33.22;;;;;;;5.91;100.00;102168.53;5087343;28;20055;-76
2023/04/09 05:58:48;;;;;;;63.72;31.33;;;;;;;5.94;100.00;102164.31;5090439;28;20048;-75
2023/04/09 06:01:15;;;;;;;71.88;32.92;;;;;;;5.99;100.00;102164.09;5089341;28;20138;-75
2023/04/09 06:03:42;;;;;;;61.50;33.05;;;;;;;6.00;100.00;102161.03;5089854;28;20418;-75
2023/04/09 06:06:09;;;;;;;70.78;36.25;;;;;;;6.07;100.00;102168.75;5086509;28;20044;-76
2023/04/09 06:08:35;;;;;;;66.43;34.80;;;;;;;6.10;100.00;102171.63;5090056;28;20048;-75
2023/04/09 06:11:02;;;;;;;73.07;37.08;;;;;;;6.18;100.00;102162.53;5087540;28;20067;-75
2023/04/09 06:13:28;;;;;;;77.82;40.17;;;;;;;6.24;100.00;102161.19;5087366;28;20170;-76
2023/04/09 06:15:55;;;;;;;71.50;36.03;;;;;;;6.30;100.00;102165.38;5088685;28;20048;-76
2023/04/09 06:18:21;;;;;;;80.95;41.90;;;;;;;6.37;100.00;102164.81;5087648;28;20476;-75
2023/04/09 06:20:48;;;;;;;83.03;39.38;;;;;;;6.44;100.00;102165.09;5087090;28;20758;-76
2023/04/09 06:23:14;;;;;;;78.03;36.72;;;;;;;6.51;100.00;102173.66;5089180;28;20051;-75
2023/04/09 06:25:41;;;;;;;75.95;38.33;;;;;;;6.60;100.00;102175.19;5089100;28;20048;-76
2023/04/09 06:28:07;;;;;;;79.55;40.65;;;;;;;6.65;100.00;102179.69;5088660;28;20067;-75
2023/04/09 06:30:35;;;;;;;79.10;38.72;;;;;;;6.77;100.00;102183.28;5089202;28;20054;-75
2023/04/09 06:33:02;;;;;;;80.07;40.35;;;;;;;6.85;100.00;102182.41;5087266;28;20048;-75
2023/04/09 06:35:29;;;;;;;71.22;37.80;;;;;;;6.94;100.00;102171.31;5088809;28;20066;-75
2023/04/09 06:37:55;;;;;;;77.00;38.67;;;;;;;7.00;100.00;102175.47;5090140;28;20043;-74
2023/04/09 06:40:22;;;;;;;72.28;35.28;;;;;;;7.09;100.00;102178.97;5089848;28;20055;-76
2023/04/09 06:42:49;;;;;;;75.45;38.28;;;;;;;7.17;100.00;102180.81;5096009;28;20059;-75
2023/04/09 06:45:15;;;;;;;67.47;36.45;;;;;;;7.22;100.00;102177.84;5087779;28;20510;-76
2023/04/09 06:47:42;;;;;;;65.53;35.83;;;;;;;7.31;100.00;102187.66;5087190;28;20802;-75
2023/04/09 06:50:09;;;;;;;70.20;36.22;;;;;;;7.39;100.00;102183.19;5096943;28;20055;-75
2023/04/09 06:52:35;;;;;;;67.70;36.22;;;;;;;7.44;100.00;102183.78;5087170;28;20056;-74
2023/04/09 06:55:02;;;;;;;72.53;34.17;;;;;;;7.58;100.00;102186.19;5086632;28;20048;-76
2023/04/09 06:57:28;;;;;;;70.88;34.22;;;;;;;7.67;100.00;102192.44;5083305;28;20109;-75
2023/04/09 06:59:55;;;;;;;66.00;31.77;;;;;;;7.74;100.00;102182.44;5085013;28;20052;-75
2023/04/09 07:02:22;;;;;;;63.42;33.28;;;;;;;7.83;100.00;102185.06;5088525;28;20043;-76
2023/04/09 07:04:48;;;;;;;55.40;29.45;;;;;;;7.88;100.00;102176.59;5091708;28;20044;-75
2023/04/09 07:07:15;;;;;;;59.97;30.75;;;;;;;8.00;100.00;102180.16;5088528;28;20055;-76
2023/04/09 07:09:41;;;;;;;57.38;30.05;;;;;;;8.06;100.00;102177.19;5089366;28;20054;-77
2023/04/09 07:12:08;;;;;;;59.60;29.15;;;;;;;8.14;100.00;102182.56;5086633;28;20135;-78
2023/04/09 07:14:34;;;;;;;54.92;26.30;;;;;;;8.24;100.00;102187.66;5081447;28;20528;-78
2023/04/09 07:17:01;;;;;;;53.22;26.38;;;;;;;8.35;100.00;102193.50;5086770;28;20058;-76
2023/04/09 07:19:27;;;;;;;50.42;26.10;;;;;;;8.46;100.00;102197.38;5088790;28;20094;-76
2023/04/09 07:21:54;;;;;;;54.03;26.63;;;;;;;8.53;100.00;102186.56;5088311;28;20055;-76
2023/04/09 07:24:21;;;;;;;48.15;24.40;;;;;;;8.62;100.00;102195.50;5085975;28;20142;-78
2023/04/09 07:26:49;;;;;;;50.53;24.13;;;;;;;8.67;100.00;102187.78;5086554;28;20036;-76
2023/04/09 07:29:19;;;;;;;48.65;24.08;;;;;;;8.76;100.00;102194.00;5088004;28;20850;-78
2023/04/09 07:31:46;;;;;;;47.55;21.98;;;;;;;8.86;100.00;102199.00;5096314;28;20502;-78
2023/04/09 07:34:12;;;;;;;42.70;23.33;;;;;;;8.99;100.00;102197.00;5088689;28;20082;-77
2023/04/09 07:36:39;;;;;;;43.95;23.17;;;;;;;9.06;100.00;102192.50;5089771;28;20043;-78
2023/04/09 07:39:06;;;;;;;47.28;23.35;;;;;;;9.17;100.00;102196.34;5086229;28;20059;-77
2023/04/09 07:41:32;;;;;;;47.00;22.63;;;;;;;9.28;100.00;102202.97;5092165;28;20043;-77
2023/04/09 07:43:59;;;;;;;46.55;22.17;;;;;;;9.36;100.00;102193.75;5084953;28;20294;-79
2023/04/09 07:46:25;;;;;;;49.30;25.17;;;;;;;9.51;100.00;102200.44;5086592;28;20044;-80
2023/04/09 07:48:52;;;;;;;44.25;22.40;;;;;;;9.64;100.00;102193.69;5087169;28;20071;-81
2023/04/09 07:51:19;;;;;;;43.85;22.65;;;;;;;9.73;100.00;102192.38;5087834;28;20052;-75
2023/04/09 07:53:45;;;;;;;45.67;23.98;;;;;;;9.86;100.00;102184.78;5087896;28;20534;-75
2023/04/09 07:56:12;;;;;;;39.83;22.75;;;;;;;9.92;100.00;102184.16;5087131;28;20062;-75
2023/04/09 07:58:39;;;;;;;38.65;19.50;;;;;;;10.04;100.00;102186.81;5086388;28;20509;-76
2023/04/09 08:01:05;;;;;;;40.83;21.50;;;;;;;10.09;100.00;102175.50;5097051;28;20341;-77
2023/04/09 08:03:34;;;;;;;42.42;22.58;;;;;;;10.25;100.00;102190.13;5086570;28;20140;-76
2023/04/09 08:06:02;;;;;;;40.33;19.13;;;;;;;10.34;100.00;102187.97;5083345;28;20039;-76
2023/04/09 08:08:29;;;;;;;41.65;19.95;;;;;;;10.47;100.00;102191.41;5088104;28;20048;-75
2023/04/09 08:10:56;;;;;;;41.40;19.45;;;;;;;10.59;100.00;102191.28;5088534;28;20047;-77
2023/04/09 08:13:24;;;;;;;38.58;18.98;;;;;;;10.74;100.00;102193.22;5086359;28;20054;-76
2023/04/09 08:15:51;;;;;;;34.40;18.13;;;;;;;10.88;100.00;102195.47;5086098;28;20148;-75
2023/04/09 08:18:17;;;;;;;39.22;19.90;;;;;;;10.95;100.00;102185.34;5086533;28;20056;-75
2023/04/09 08:20:44;;;;;;;38.28;19.40;;;;;;;11.05;100.00;102183.94;5086520;28;20802;-75
2023/04/09 08:23:11;;;;;;;38.47;19.58;;;;;;;11.14;100.00;102190.84;5086638;28;20054;-76
2023/04/09 08:25:37;;;;;;;40.53;21.58;;;;;;;11.25;100.00;102193.84;5087100;28;20052;-76
2023/04/09 08:28:04;;;;;;;37.17;18.85;;;;;;;11.40;100.00;102187.41;5087646;28;20130;-76
2023/04/09 08:30:33;;;;;;;34.92;17.90;;;;;;;11.53;100.00;102184.09;5092789;28;20434;-76
2023/04/09 08:33:00;;;;;;;36.63;17.42;;;;;;;11.65;100.00;102183.94;5082589;28;20049;-79
2023/04/09 08:35:29;;;;;;;37.95;20.98;;;;;;;11.78;100.00;102184.56;5087232;28;20044;-76
2023/04/09 08:37:56;;;;;;;35.40;19.13;;;;;;;11.93;100.00;102184.44;5087633;28;20176;-76
2023/04/09 08:40:23;;;;;;;34.08;17.38;;;;;;;12.05;100.00;102175.13;5086481;28;20048;-77
2023/04/09 08:42:57;;;;;;;31.73;16.20;;;;;;;12.20;100.00;102182.50;5085251;28;20048;-79
2023/04/09 08:45:23;;;;;;;36.05;17.20;;;;;;;12.32;100.00;102173.97;5087507;28;20089;-76
2023/04/09 08:47:51;;;;;;;29.67;13.77;;;;;;;12.47;100.00;102184.91;5087726;28;20063;-76
2023/04/09 08:50:18;;;;;;;28.88;14.15;;;;;;;12.59;100.00;102181.88;5094257;28;20135;-77
2023/04/09 08:52:48;;;;;;;30.00;13.93;;;;;;;12.68;100.00;102171.31;5086631;28;20498;-83
2023/04/09 08:55:15;;;;;;;29.33;14.43;;;;;;;12.79;100.00;102186.13;5087665;28;20048;-76
2023/04/09 08:57:42;;;;;;;29.40;15.25;;;;;;;12.91;100.00;102179.53;5085424;28;20044;-78
2023/04/09 09:00:09;;;;;;;25.67;12.18;;;;;;;13.02;100.00;102180.47;5085574;28;20489;-76
2023/04/09 09:02:37;;;;;;;6.85;2.30;;;;;;;13.11;100.00;102178.22;5076936;28;20608;-77
2023/04/09 09:05:04;;;;;;;13.82;5.13;;;;;;;13.16;100.00;102174.31;5087117;28;20395;-77
2023/04/09 09:07:31;;;;;;;19.63;8.70;;;;;;;13.36;100.00;102181.28;5085947;28;20395;-77
2023/04/09 09:10:02;;;;;;;19.52;8.55;;;;;;;13.44;100.00;102178.19;5077335;28;20508;-76
2023/04/09 09:12:32;;;;;;;19.23;7.93;;;;;;;13.60;100.00;102180.72;5079133;28;20043;-77
2023/04/09 09:14:59;;;;;;;17.15;7.63;;;;;;;13.63;100.00;102177.19;5088603;28;20075;-76
2023/04/09 09:17:26;;;;;;;18.65;7.68;;;;;;;13.77;100.00;102175.31;5085173;28;20630;-77
2023/04/09 09:19:52;;;;;;;17.67;7.30;;;;;;;13.89;100.00;102182.56;5091286;28;20059;-79
2023/04/09 09:22:19;;;;;;;18.15;8.38;;;;;;;13.95;100.00;102181.03;5085256;28;20063;-80
2023/04/09 09:24:50;;;;;;;20.50;8.60;;;;;;;13.98;100.00;102169.94;5083135;28;20040;-76
2023/04/09 09:27:31;;;;;;;19.35;8.63;;;;;;;14.17;100.00;102169.69;5085872;28;20131;-78
2023/04/09 09:29:58;;;;;;;18.70;7.95;;;;;;;14.30;100.00;102161.84;5086542;28;20068;-80
2023/04/09 09:32:24;;;;;;;20.63;9.38;;;;;;;14.40;100.00;102161.91;5086884;28;20143;-79
2023/04/09 09:35:02;;;;;;;20.60;10.30;;;;;;;14.52;100.00;102158.00;5092174;28;20048;-79
2023/04/09 09:37:30;;;;;;;21.08;10.52;;;;;;;14.65;100.00;102148.13;5091292;28;20829;-76
2023/04/09 09:39:57;;;;;;;22.25;10.88;;;;;;;14.78;100.00;102147.38;5090941;28;20105;-78
2023/04/09 09:42:25;;;;;;;22.27;9.93;;;;;;;14.87;100.00;102156.19;5091663;28;20500;-77
2023/04/09 09:44:54;;;;;;;21.92;10.02;;;;;;;14.97;100.00;102149.88;5089001;28;20127;-78
2023/04/09 09:47:21;;;;;;;24.35;11.93;;;;;;;15.11;100.00;102152.69;5089387;28;20055;-78
2023/04/09 09:49:49;;;;;;;24.50;8.30;;;;;;;15.17;100.00;102151.13;5088779;28;20703;-78
2023/04/09 09:52:27;;;;;;;21.55;9.02;;;;;;;15.18;100.00;102144.34;5085966;28;20093;-78
2023/04/09 09:54:57;;;;;;;20.10;9.30;;;;;;;15.25;100.00;102146.34;5090187;28;20432;-78
2023/04/09 09:57:27;;;;;;;21.73;9.50;;;;;;;15.27;100.00;102150.34;5092488;28;20122;-78
2023/04/09 10:00:00;;;;;;;9.90;2.92;;;;;;;15.01;99.92;102133.94;5093219;28;20048;-81
2023/04/09 10:02:31;;;;;;;10.35;4.18;;;;;;;14.97;100.00;102132.34;5085448;28;20047;-79
2023/04/09 10:05:03;;;;;;;24.13;10.48;;;;;;;15.09;100.00;102131.97;5078487;28;20481;-80
2023/04/09 10:07:29;;;;;;;21.40;10.95;;;;;;;15.18;100.00;102124.84;5080465;28;20058;-76
2023/04/09 10:09:57;;;;;;;18.33;7.80;;;;;;;15.31;100.00;102126.06;5079311;28;20045;-77
2023/04/09 10:12:24;;;;;;;20.60;10.77;;;;;;;15.45;96.70;102140.06;5078252;28;20073;-79
2023/04/09 10:14:52;;;;;;;18.98;9.02;;;;;;;15.68;100.00;102131.31;5087792;28;20043;-77
2023/04/09 10:17:19;;;;;;;22.90;10.75;;;;;;;15.87;97.32;102138.47;5087197;28;20083;-79
2023/04/09 10:19:55;;;;;;;22.02;10.77;;;;;;;15.91;99.52;102128.91;5092794;28;20195;-79
2023/04/09 10:22:26;;;;;;;20.70;10.20;;;;;;;16.03;96.31;102124.91;5088887;28;20040;-78
2023/04/09 10:24:54;;;;;;;17.67;7.65;;;;;;;15.97;89.43;102123.72;5084772;28;20055;-78
2023/04/09 10:27:21;;;;;;;17.88;7.15;;;;;;;15.96;90.13;102108.19;5089478;28;20080;-76
2023/04/09 10:29:50;;;;;;;19.17;8.02;;;;;;;15.95;88.23;102114.94;5089285;28;20073;-79
2023/04/09 10:32:22;;;;;;;20.20;9.43;;;;;;;16.08;95.63;102105.75;5087146;28;20062;-76
2023/04/09 10:34:49;;;;;;;20.58;7.85;;;;;;;16.14;90.81;102108.94;5090490;28;20047;-76
2023/04/09 10:37:21;;;;;;;21.27;10.30;;;;;;;16.13;91.20;102102.53;5087098;28;20043;-76
2023/04/09 10:39:50;;;;;;;18.33;9.10;;;;;;;16.23;93.75;102089.78;5081765;28;20385;-77
2023/04/09 10:42:31;;;;;;;19.75;8.77;;;;;;;16.36;91.39;102088.13;5085780;28;20046;-78
2023/04/09 10:45:08;;;;;;;17.00;7.95;;;;;;;16.60;97.77;102098.47;5082420;28;20556;-79
2023/04/09 10:47:38;;;;;;;8.25;3.28;;;;;;;16.67;81.71;102104.81;5087859;28;20044;-79
2023/04/09 10:50:18;;;;;;;14.48;5.70;;;;;;;16.55;74.95;102104.47;5086767;28;20129;-79
2023/04/09 10:52:44;;;;;;;16.83;6.63;;;;;;;16.62;84.37;102096.84;5086695;28;20636;-74
2023/04/09 10:55:33;;;;;;;18.58;8.63;;;;;;;16.52;75.99;102097.69;5091775;28;20039;-79
2023/04/09 10:58:00;;;;;;;18.20;8.48;;;;;;;16.66;85.91;102094.03;5090350;28;20052;-77
2023/04/09 11:00:26;;;;;;;17.30;8.27;;;;;;;16.54;83.40;102102.88;5089486;28;20059;-76
2023/04/09 11:03:16;;;;;;;16.48;6.28;;;;;;;16.42;77.29;102089.31;5085967;28;20526;-77
2023/04/09 11:06:12;;;;;;;17.38;8.07;;;;;;;16.68;89.91;102097.22;5081976;28;20102;-77
2023/04/09 11:08:40;;;;;;;18.17;8.37;;;;;;;16.92;89.61;102085.94;5083710;28;20048;-77
2023/04/09 11:11:06;;;;;;;18.60;8.60;;;;;;;17.03;88.83;102095.06;5081135;28;20036;-76
2023/04/09 11:13:33;;;;;;;18.33;8.20;;;;;;;16.99;82.46;102083.09;5080152;28;20055;-76